createdAt,value
2022-10-16T00:04:20.551Z,88.71
2022-10-16T00:09:27.335Z,88.76
2022-10-16T00:14:35.018Z,88.44
2022-10-16T00:19:41.088Z,88.59
2022-10-16T00:25:06.589Z,88.61
2022-10-16T00:30:14.301Z,88.68
2022-10-16T00:35:20.266Z,88.45
2022-10-16T00:40:26.810Z,88.64
2022-10-16T00:45:34.777Z,88.69
2022-10-16T00:50:44.581Z,88.76
2022-10-16T00:55:50.530Z,88.94
2022-10-16T01:01:02.877Z,88.31
2022-10-16T01:06:26.214Z,88.89
2022-10-16T01:11:41.206Z,88.24
2022-10-16T01:16:57.895Z,88.23
2022-10-16T01:22:05.818Z,88.04
2022-10-16T01:27:20.575Z,88.49
2022-10-16T01:32:36.150Z,88.63
2022-10-16T01:37:49.193Z,88.14
2022-10-16T01:43:03.137Z,88.52
2022-10-16T01:48:14.601Z,88.72
2022-10-16T01:53:21.279Z,88.49
2022-10-16T01:58:38.198Z,88.52
2022-10-16T02:03:47.718Z,88.15
2022-10-16T02:08:55.149Z,88.26
2022-10-16T02:14:09.021Z,87.70
2022-10-16T02:19:17.797Z,87.85
2022-10-16T02:24:35.895Z,88.00
2022-10-16T02:29:55.067Z,87.72
2022-10-16T02:35:03.458Z,87.44
2022-10-16T02:40:13.039Z,87.71
2022-10-16T02:45:31.310Z,87.66
2022-10-16T02:50:39.687Z,87.67
2022-10-16T02:55:46.041Z,87.42
2022-10-16T03:00:54.526Z,87.29
2022-10-16T03:06:00.558Z,87.52
2022-10-16T03:11:07.191Z,87.73
2022-10-16T03:16:14.700Z,87.48
2022-10-16T03:21:20.615Z,87.24
2022-10-16T03:26:27.628Z,86.86
2022-10-16T03:31:34.987Z,86.65
2022-10-16T03:36:40.920Z,86.59
2022-10-16T03:41:47.860Z,86.38
2022-10-16T03:46:55.289Z,86.56
2022-10-16T03:52:01.230Z,85.78
2022-10-16T03:57:07.154Z,85.89
2022-10-16T04:02:14.509Z,85.88
2022-10-16T04:07:20.497Z,85.57
2022-10-16T04:12:26.444Z,85.42
2022-10-16T04:17:35.910Z,84.92
2022-10-16T04:22:42.521Z,84.31
2022-10-16T04:27:51.252Z,84.15
2022-10-16T04:33:02.787Z,84.18
2022-10-16T04:38:09.670Z,83.84
2022-10-16T04:43:17.074Z,84.15
2022-10-16T04:48:25.936Z,84.17
2022-10-16T04:53:32.213Z,84.05
2022-10-16T04:58:38.706Z,84.10
2022-10-16T05:03:47.947Z,84.13
2022-10-16T05:08:58.130Z,84.44
2022-10-16T05:14:07.347Z,84.88
2022-10-16T05:19:27.370Z,84.64
2022-10-16T05:24:36.807Z,85.06
2022-10-16T05:29:44.278Z,84.79
2022-10-16T05:34:53.121Z,85.15
2022-10-16T05:39:59.236Z,85.41
2022-10-16T05:45:06.861Z,85.46
2022-10-16T05:50:14.460Z,85.50
2022-10-16T05:55:20.627Z,85.24
2022-10-16T06:00:26.656Z,85.45
2022-10-16T06:05:34.548Z,86.01
2022-10-16T06:10:40.560Z,86.12
2022-10-16T06:15:47.674Z,86.40
2022-10-16T06:20:55.861Z,86.24
2022-10-16T06:26:09.600Z,86.80
2022-10-16T06:31:16.386Z,86.89
2022-10-16T06:36:23.938Z,86.90
2022-10-16T06:41:30.034Z,88.07
2022-10-16T06:46:37.714Z,87.63
2022-10-16T06:51:45.190Z,88.58
2022-10-16T06:56:51.333Z,88.21
2022-10-16T07:01:57.444Z,88.40
2022-10-16T07:07:07.021Z,88.72
2022-10-16T07:12:15.478Z,88.62
2022-10-16T07:17:21.613Z,88.79
2022-10-16T07:22:30.686Z,87.82
2022-10-16T07:32:43.990Z,88.66
2022-10-16T07:37:51.562Z,89.02
2022-10-16T07:42:57.819Z,88.54
2022-10-16T07:48:03.931Z,88.80
2022-10-16T07:53:12.243Z,88.52
2022-10-16T07:58:18.353Z,88.68
2022-10-16T08:03:24.903Z,88.53
2022-10-16T08:08:33.019Z,88.47
2022-10-16T08:13:39.762Z,88.33
2022-10-16T08:18:45.933Z,87.98
2022-10-16T08:23:57.924Z,87.96
2022-10-16T08:29:04.702Z,88.45
2022-10-16T08:34:10.725Z,88.05
2022-10-16T08:39:19.032Z,88.09
2022-10-16T08:45:04.088Z,88.20
2022-10-16T08:50:15.626Z,88.20
2022-10-16T08:55:41.214Z,88.14
2022-10-16T09:00:53.495Z,87.96
2022-10-16T09:06:23.510Z,87.79
2022-10-16T09:11:44.479Z,87.41
2022-10-16T09:16:59.433Z,86.65
2022-10-16T09:22:17.486Z,86.57
2022-10-16T09:27:25.860Z,86.46
2022-10-16T09:32:34.878Z,86.05
2022-10-16T09:37:41.466Z,85.79
2022-10-16T09:42:49.541Z,85.49
2022-10-16T09:47:57.850Z,85.50
2022-10-16T09:53:14.018Z,85.85
2022-10-16T09:58:26.592Z,85.20
2022-10-16T10:03:45.127Z,85.33
2022-10-16T10:09:07.598Z,85.17
2022-10-16T10:14:24.181Z,84.63
2022-10-16T10:19:32.971Z,84.78
2022-10-16T10:24:42.193Z,84.10
2022-10-16T10:30:02.180Z,84.01
2022-10-16T10:35:24.659Z,83.51
2022-10-16T10:40:42.839Z,83.54
2022-10-16T10:45:56.175Z,83.72
2022-10-16T10:51:11.704Z,83.45
2022-10-16T10:56:41.758Z,83.46
2022-10-16T11:02:01.259Z,82.54
2022-10-16T11:07:18.441Z,82.34
2022-10-16T11:12:29.087Z,82.52
2022-10-16T11:17:44.911Z,81.93
2022-10-16T11:22:57.946Z,81.95
2022-10-16T11:28:12.941Z,81.94
2022-10-16T11:33:33.984Z,81.78
2022-10-16T11:39:56.110Z,81.47
2022-10-16T11:45:16.892Z,81.83
2022-10-16T11:50:31.953Z,82.13
2022-10-16T11:55:44.774Z,81.93
2022-10-16T12:01:04.842Z,81.43
2022-10-16T12:06:34.378Z,80.59
2022-10-16T12:11:42.215Z,79.95
2022-10-16T12:16:58.462Z,80.69
2022-10-16T12:22:18.755Z,80.97
2022-10-16T12:27:31.017Z,80.41
2022-10-16T12:32:48.395Z,80.56
2022-10-16T12:38:27.956Z,80.21
2022-10-16T12:43:45.070Z,79.83
2022-10-16T12:49:08.400Z,80.05
2022-10-16T12:54:20.309Z,80.28
2022-10-16T12:59:41.103Z,79.69
2022-10-16T13:05:02.592Z,80.17
2022-10-16T13:10:26.215Z,79.38
2022-10-16T13:15:54.772Z,79.05
2022-10-16T13:21:19.938Z,78.78
2022-10-16T13:26:41.221Z,79.10
2022-10-16T13:31:48.099Z,79.05
2022-10-16T13:36:55.732Z,79.36
2022-10-16T13:42:09.411Z,79.84
2022-10-16T13:47:21.733Z,79.31
2022-10-16T13:52:28.413Z,79.64
2022-10-16T13:57:36.955Z,79.64
2022-10-16T14:02:44.516Z,79.85
2022-10-16T14:07:54.521Z,80.02
2022-10-16T14:13:06.260Z,80.07
2022-10-16T14:18:22.647Z,80.31
2022-10-16T14:23:34.835Z,80.96
2022-10-16T14:28:44.213Z,81.42
2022-10-16T14:33:52.100Z,81.15
2022-10-16T14:39:05.564Z,80.76
2022-10-16T14:44:16.852Z,78.68
2022-10-16T14:49:24.892Z,80.82
2022-10-16T14:54:31.333Z,80.98
2022-10-16T14:59:42.877Z,81.25
2022-10-16T15:04:49.321Z,81.39
2022-10-16T15:09:56.105Z,82.02
2022-10-16T15:15:04.123Z,82.39
2022-10-16T15:20:11.244Z,82.28
2022-10-16T15:25:43.846Z,82.36
2022-10-16T15:30:54.124Z,82.73
2022-10-16T15:36:01.381Z,82.97
2022-10-16T15:42:24.995Z,83.08
2022-10-16T15:47:33.703Z,83.67
2022-10-16T15:52:41.348Z,83.97
2022-10-16T15:57:49.562Z,84.58
2022-10-16T16:03:00.954Z,84.38
2022-10-16T16:08:08.501Z,84.42
2022-10-16T16:13:15.115Z,84.95
2022-10-16T16:18:24.467Z,84.98
2022-10-16T16:23:31.079Z,85.02
2022-10-16T16:28:37.839Z,83.91
2022-10-16T16:33:46.190Z,83.77
2022-10-16T16:38:53.148Z,84.16
2022-10-16T16:44:06.270Z,84.15
2022-10-16T16:49:16.598Z,84.20
2022-10-16T16:54:23.789Z,83.50
2022-10-16T16:59:31.477Z,84.17
2022-10-16T17:04:39.304Z,83.92
2022-10-16T17:09:45.970Z,84.05
2022-10-16T17:14:54.273Z,84.28
2022-10-16T17:20:02.800Z,83.94
2022-10-16T17:25:13.666Z,84.14
2022-10-16T17:30:20.852Z,84.49
2022-10-16T17:35:31.873Z,84.01
2022-10-16T17:40:44.433Z,84.33
2022-10-16T17:45:51.731Z,84.24
2022-10-16T17:51:02.298Z,84.32
2022-10-16T17:56:12.135Z,84.56
2022-10-16T18:01:23.345Z,84.33
2022-10-16T18:06:33.219Z,84.42
2022-10-16T18:11:40.941Z,84.40
2022-10-16T18:16:47.701Z,84.44
2022-10-16T18:21:57.301Z,83.98
2022-10-16T18:27:04.350Z,84.41
2022-10-16T18:32:11.433Z,83.94
2022-10-16T18:37:20.684Z,83.91
2022-10-16T18:42:28.567Z,83.39
2022-10-16T18:47:35.954Z,83.33
2022-10-16T18:52:50.681Z,83.76
2022-10-16T18:57:58.072Z,83.71
2022-10-16T19:03:05.195Z,82.88
2022-10-16T19:08:14.201Z,82.84
2022-10-16T19:13:23.772Z,83.11
2022-10-16T19:18:32.380Z,83.08
2022-10-16T19:23:45.664Z,82.73
2022-10-16T19:28:54.229Z,83.22
2022-10-16T19:34:04.548Z,83.17
2022-10-16T19:39:16.590Z,83.31
2022-10-16T19:44:24.106Z,83.31
2022-10-16T19:49:30.762Z,83.21
2022-10-16T19:54:39.408Z,83.46
2022-10-16T19:59:45.834Z,83.76
2022-10-16T20:04:52.269Z,83.71
2022-10-16T20:10:00.373Z,83.45
2022-10-16T20:15:08.273Z,83.58
2022-10-16T20:20:14.935Z,83.60
2022-10-16T20:25:22.418Z,83.40
2022-10-16T20:30:28.635Z,83.59
2022-10-16T20:35:38.438Z,83.29
2022-10-16T20:40:49.377Z,83.24
2022-10-16T20:46:02.577Z,82.92
2022-10-16T20:51:14.911Z,82.58
2022-10-16T20:56:22.796Z,82.56
2022-10-16T21:01:31.374Z,82.90
2022-10-16T21:06:40.416Z,83.09
2022-10-16T21:11:48.328Z,82.92
2022-10-16T21:16:55.312Z,83.41
2022-10-16T21:22:01.433Z,83.68
2022-10-16T21:27:08.928Z,83.72
2022-10-16T21:32:15.353Z,83.93
2022-10-16T21:37:21.707Z,84.00
2022-10-16T21:42:30.129Z,85.15
2022-10-16T21:47:36.505Z,84.92
2022-10-16T21:52:42.622Z,84.86
2022-10-16T21:57:50.293Z,84.68
2022-10-16T22:02:58.882Z,84.16
2022-10-16T22:08:05.216Z,84.14
2022-10-16T22:13:12.822Z,84.40
2022-10-16T22:18:19.615Z,83.88
2022-10-16T22:23:26.033Z,83.93
2022-10-16T22:28:33.641Z,83.53
2022-10-16T22:33:40.328Z,83.40
2022-10-16T22:38:46.716Z,83.10
2022-10-16T22:43:54.603Z,82.89
2022-10-16T22:49:01.107Z,83.17
2022-10-16T22:54:07.259Z,83.32
2022-10-16T22:59:15.483Z,83.40
2022-10-16T23:04:21.584Z,83.03
2022-10-16T23:09:28.344Z,81.60
2022-10-16T23:14:35.948Z,82.32
2022-10-16T23:19:42.042Z,82.07
2022-10-16T23:24:48.379Z,81.96
2022-10-16T23:29:55.995Z,82.00
2022-10-16T23:35:02.490Z,81.22
2022-10-16T23:40:09.845Z,80.63
2022-10-16T23:45:19.120Z,80.76
2022-10-16T23:50:25.461Z,81.57
